Time;durP1;ratioP1;P1;durP2;ratioP2;P2;SDS_P1;SDS_P2;PMS_P1;PMS_P2;Temp;Humidity;BMP_temperature;BMP_pressure;BME280_temperature;BME280_humidity;BME280_pressure;Samples;Min_cycle;Max_cycle;Signal;HPM_P1;HPM_P2
2024/04/04 00:00:26;;;;;;;0.70;0.70;;;10.90;99.90;;;-141.84;79.28;35369.97;5113816;27;20252;-65
2024/04/04 00:02:56;;;;;;;0.70;0.70;;;10.90;99.90;;;-141.84;80.00;39242.66;5115658;27;20214;-67
2024/04/04 00:05:22;;;;;;;1.50;1.07;;;10.90;99.90;;;-141.84;80.35;41404.19;5112796;27;20226;-66
2024/04/04 00:07:50;;;;;;;0.97;0.87;;;10.90;99.90;;;-141.84;82.09;53615.19;5113833;27;20233;-67
2024/04/04 00:10:18;;;;;;;1.10;0.90;;;10.90;99.90;;;-141.84;81.57;53877.56;5115312;27;20214;-65
2024/04/04 00:12:45;;;;;;;1.93;0.93;;;10.90;99.90;;;-141.84;80.77;47060.84;5115040;27;20230;-66
2024/04/04 00:15:12;;;;;;;1.20;0.97;;;10.90;99.90;;;-141.84;80.42;42871.75;5101511;27;20206;-66
2024/04/04 00:17:39;;;;;;;1.00;0.90;;;10.90;99.90;;;-141.84;79.50;34431.47;5110034;27;20218;-66
2024/04/04 00:20:06;;;;;;;1.10;1.00;;;10.90;99.90;;;-141.84;82.77;58603.75;5108844;28;20226;-66
2024/04/04 00:22:34;;;;;;;1.00;0.90;;;10.90;99.90;;;-141.84;83.54;63598.59;5111257;27;20211;-65
2024/04/04 00:25:00;;;;;;;2.10;0.87;;;10.80;99.90;;;-141.84;85.13;70707.31;5109275;28;20751;-66
2024/04/04 00:27:29;;;;;;;0.87;0.87;;;10.80;99.90;;;-141.84;86.35;76245.09;5112440;28;20195;-66
2024/04/04 00:29:56;;;;;;;1.47;0.90;;;10.70;99.90;;;-141.84;84.52;69389.94;5062450;27;20201;-66
2024/04/04 00:32:24;;;;;;;1.00;0.80;;;10.70;99.90;;;-141.84;85.35;72288.75;5111677;28;20669;-64
2024/04/04 00:34:51;;;;;;;0.80;0.80;;;10.70;99.90;;;-141.84;86.46;75981.22;5110344;28;20249;-65
2024/04/04 00:37:18;;;;;;;1.00;1.00;;;10.70;99.90;;;-141.84;86.14;76508.97;5076197;28;20227;-66
2024/04/04 00:39:44;;;;;;;1.33;0.80;;;10.70;99.90;;;-141.84;86.28;75981.22;5111147;28;20280;-64
2024/04/04 00:42:11;;;;;;;1.07;0.97;;;10.80;99.90;;;-141.84;85.52;73079.69;5111109;28;20200;-65
2024/04/04 00:44:39;;;;;;;1.43;1.07;;;10.70;99.90;;;-141.84;84.07;66493.19;5109768;28;20219;-65
2024/04/04 00:47:07;;;;;;;0.93;0.83;;;10.70;99.90;;;-141.84;85.40;71497.94;5110129;28;20281;-65
2024/04/04 00:49:34;;;;;;;1.33;1.20;;;10.70;99.90;;;-141.84;84.68;69389.94;5110660;28;20219;-64
2024/04/04 00:52:08;;;;;;;1.20;1.10;;;10.80;99.90;;;-141.84;85.77;74662.09;5106793;28;20219;-65
2024/04/04 00:54:41;;;;;;;1.10;1.00;;;10.70;99.90;;;-141.84;86.75;77828.72;5110734;28;20190;-66
2024/04/04 00:57:08;;;;;;;1.10;1.00;;;10.70;99.90;;;-141.84;88.58;84169.50;5109837;28;20195;-64
2024/04/04 00:59:36;;;;;;;1.27;1.17;;;10.60;99.90;;;-141.84;90.44;90255.47;5113750;28;20645;-66
2024/04/04 01:02:05;;;;;;;1.20;1.10;;;10.60;99.90;;;-141.84;89.98;89725.88;5113218;28;20219;-66
2024/04/04 01:04:32;;;;;;;1.40;1.30;;;10.50;99.90;;;-141.84;89.87;88666.94;5105825;28;20215;-66
2024/04/04 01:07:00;;;;;;;2.30;1.50;;;10.40;99.90;;;-141.84;92.07;94759.69;5113193;28;20218;-67
2024/04/04 01:09:26;;;;;;;1.10;1.10;;;10.40;99.90;;;-141.84;92.94;96881.06;5112016;28;20203;-66
2024/04/04 01:11:53;;;;;;;2.07;1.10;;;10.30;99.90;;;-141.84;95.17;101658.25;5114894;28;20655;-64
2024/04/04 01:14:20;;;;;;;1.60;1.40;;;10.20;99.90;;;-141.84;95.42;103251.88;5117005;27;20226;-65
2024/04/04 01:16:47;;;;;;;1.17;1.07;;;10.20;99.90;;;-141.84;96.10;104314.66;5112358;28;20216;-65
2024/04/04 01:19:15;;;;;;;1.43;1.30;;;10.20;99.90;;;-141.84;96.30;104580.41;5112895;27;20268;-65
2024/04/04 01:21:42;;;;;;;2.03;1.30;;;10.30;99.90;;;-141.84;96.15;104846.16;5117460;27;20210;-66
2024/04/04 01:24:10;;;;;;;1.40;1.30;;;10.30;99.90;;;-141.84;94.82;102189.38;5117012;27;20291;-64
2024/04/04 01:26:37;;;;;;;1.40;1.30;;;10.40;99.90;;;-141.84;93.54;99534.38;5116301;27;20760;-66
2024/04/04 01:29:03;;;;;;;3.67;1.57;;;10.40;99.90;;;-141.84;91.44;93964.47;5107005;27;20238;-66
2024/04/04 01:31:31;;;;;;;1.73;1.60;;;10.50;99.90;;;-141.84;87.37;81790.53;5117195;27;20740;-66
2024/04/04 01:33:57;;;;;;;1.33;1.23;;;10.60;99.90;;;-141.84;85.36;71234.38;5074580;27;20662;-65
2024/04/04 01:36:24;;;;;;;1.50;1.40;;;10.70;99.90;;;-141.84;85.77;72816.03;5116567;27;20203;-65
2024/04/04 01:38:51;;;;;;;1.00;1.00;;;10.80;99.90;;;-141.84;87.03;79148.88;5117699;27;20596;-65
2024/04/04 01:41:20;;;;;;;2.00;1.40;;;10.70;99.90;;;-141.84;81.89;52828.09;5115881;27;20218;-65
2024/04/04 01:43:46;;;;;;;1.67;1.40;;;10.80;99.90;;;-141.84;82.54;56502.53;5117041;27;20226;-66
2024/04/04 01:46:13;;;;;;;1.50;1.40;;;10.90;99.90;;;-141.84;83.89;63861.66;5117165;27;20229;-66
2024/04/04 01:48:40;;;;;;;1.50;1.40;;;10.90;99.90;;;-141.84;85.31;71234.38;5107389;27;20191;-66
2024/04/04 01:51:07;;;;;;;1.10;1.10;;;10.90;99.90;;;-141.84;85.27;72025.13;5118402;27;20203;-65
2024/04/04 01:53:35;;;;;;;1.87;1.20;;;10.90;99.90;;;-141.84;86.37;75717.34;5108262;28;20204;-65
2024/04/04 01:56:03;;;;;;;1.83;1.47;;;10.90;99.90;;;-141.84;86.02;76508.97;5113759;28;20219;-59
2024/04/04 01:58:31;;;;;;;2.30;1.30;;;10.90;99.90;;;-141.84;80.48;45227.56;5117627;27;20223;-59
2024/04/04 02:00:59;;;;;;;1.57;1.30;;;11.00;99.90;;;-141.84;81.54;50992.13;5114983;28;20234;-60
2024/04/04 02:03:25;;;;;;;1.43;1.33;;;11.00;99.90;;;-141.84;83.73;63861.66;5113495;27;20223;-60
2024/04/04 02:05:56;;;;;;;2.13;1.40;;;11.00;99.90;;;-141.84;84.41;67546.31;5119872;27;20204;-60
2024/04/04 02:08:22;;;;;;;1.40;1.30;;;11.00;99.90;;;-141.84;84.56;67283.00;5116977;27;20244;-59
2024/04/04 02:10:49;;;;;;;1.60;1.50;;;11.00;99.90;;;-141.84;84.29;68336.31;5117321;27;20219;-60
2024/04/04 02:13:16;;;;;;;3.30;1.40;;;11.00;99.90;;;-141.84;84.30;67283.00;5116752;27;20222;-60
2024/04/04 02:15:44;;;;;;;2.53;1.47;;;11.00;99.90;;;-141.84;84.53;68599.69;5118861;27;21153;-60
2024/04/04 02:18:19;;;;;;;3.23;1.40;;;11.10;99.90;;;-141.84;83.03;59917.56;5107058;28;20215;-59
2024/04/04 02:20:47;;;;;;;1.83;1.37;;;11.10;99.90;;;-141.84;83.76;65703.56;5109079;27;20215;-58
2024/04/04 02:23:13;;;;;;;1.60;1.37;;;11.00;99.90;;;-141.84;84.97;69916.81;5115964;27;20248;-59
2024/04/04 02:25:41;;;;;;;1.50;1.40;;;11.00;99.90;;;-141.84;87.63;80733.66;5112337;27;20235;-60
2024/04/04 02:28:07;;;;;;;1.50;1.40;;;10.90;99.90;;;-141.84;89.96;88931.63;5117638;27;20210;-59
2024/04/04 02:30:35;;;;;;;1.70;1.60;;;10.80;99.90;;;-141.84;90.90;92109.53;5105354;28;20196;-59
2024/04/04 02:33:03;;;;;;;1.60;1.50;;;10.60;99.90;;;-141.84;92.89;96881.06;5111350;27;20202;-58
2024/04/04 02:35:31;;;;;;;1.77;1.67;;;10.60;99.90;;;-141.84;93.81;99799.78;5114747;28;20215;-68
2024/04/04 02:37:57;;;;;;;1.73;1.63;;;10.50;99.90;;;-141.84;94.85;102189.38;5062189;28;20223;-66
2024/04/04 02:40:24;;;;;;;1.60;1.30;;;10.50;99.90;;;-141.84;95.15;102986.25;5110300;27;20800;-65
2024/04/04 02:42:52;;;;;;;2.07;1.87;;;10.50;99.90;;;-141.84;95.74;103517.56;5107332;27;20284;-65
2024/04/04 02:45:22;;;;;;;1.80;1.70;;;10.40;99.90;;;-141.84;96.21;105111.94;5115745;27;20199;-59
2024/04/04 02:47:48;;;;;;;1.30;1.20;;;10.40;99.90;;;-141.84;96.43;105377.72;5116568;27;20589;-65
2024/04/04 02:50:17;;;;;;;2.07;1.60;;;10.40;99.90;;;-141.84;97.37;107238.72;5111665;28;20227;-66
2024/04/04 02:52:43;;;;;;;1.43;1.33;;;10.40;99.90;;;-141.84;95.43;103783.25;5106557;28;20211;-64
2024/04/04 02:55:15;;;;;;;1.83;1.73;;;10.50;99.90;;;-141.84;94.39;101392.69;5112936;27;20227;-66
2024/04/04 02:57:41;;;;;;;1.87;1.77;;;10.50;99.90;;;-141.84;96.09;104580.41;5111569;28;20253;-64
2024/04/04 03:00:14;;;;;;;2.30;2.10;;;10.50;99.90;;;-141.84;96.15;105377.72;5112373;27;20206;-65
2024/04/04 03:02:40;;;;;;;1.93;1.83;;;10.50;99.90;;;-141.84;95.81;104314.66;5129277;27;20215;-65
2024/04/04 03:05:08;;;;;;;2.23;1.47;;;10.50;99.90;;;-141.84;96.62;105909.34;5113353;27;20222;-65
2024/04/04 03:07:35;;;;;;;1.50;1.40;;;10.50;99.90;;;-141.84;96.68;105909.34;5112274;28;20232;-66
2024/04/04 03:10:03;;;;;;;1.50;1.40;;;10.60;99.90;;;-141.84;94.51;101658.25;5095698;28;20327;-66
2024/04/04 03:12:30;;;;;;;2.07;1.60;;;10.70;99.90;;;-141.84;95.53;103517.56;5108166;27;20252;-66
2024/04/04 03:14:57;;;;;;;2.17;1.90;;;10.60;99.90;;;-141.84;95.85;104846.16;5109716;27;20210;-66
2024/04/04 03:17:25;;;;;;;2.03;1.80;;;10.70;99.90;;;-141.84;93.21;100065.22;5108853;27;20299;-66
2024/04/04 03:19:53;;;;;;;1.90;1.80;;;10.70;99.90;;;-141.84;90.73;92374.47;5113118;27;20234;-65
2024/04/04 03:22:19;;;;;;;2.33;2.13;;;10.80;99.90;;;-141.84;91.45;93964.47;5115709;27;20546;-59
2024/04/04 03:24:48;;;;;;;2.93;2.20;;;10.80;99.90;;;-141.84;88.85;87608.25;5116140;27;20283;-59
2024/04/04 03:27:14;;;;;;;3.00;2.00;;;10.90;99.90;;;-141.84;89.40;87079.03;5113090;28;20207;-60
2024/04/04 03:29:41;;;;;;;3.03;2.17;;;10.80;99.90;;;-141.84;89.53;89725.88;5113822;28;20215;-60
2024/04/04 03:32:08;;;;;;;2.57;2.37;;;10.90;99.90;;;-141.84;87.72;82847.66;5116746;27;20234;-60
2024/04/04 03:34:35;;;;;;;2.70;2.40;;;11.00;99.90;;;-141.84;88.83;86020.75;5115998;27;20633;-61
2024/04/04 03:37:01;;;;;;;2.70;2.50;;;11.00;99.90;;;-141.84;85.33;72816.03;5115616;27;20660;-59
2024/04/04 03:39:30;;;;;;;3.13;2.83;;;11.10;99.90;;;-141.84;84.69;71761.53;5107261;27;20210;-65
2024/04/04 03:42:01;;;;;;;2.23;2.10;;;11.10;99.90;;;-141.84;82.03;55714.84;5116641;27;20183;-64
2024/04/04 03:44:28;;;;;;;3.77;2.60;;;11.20;99.90;;;-141.84;79.77;40482.63;5112453;27;20588;-65
2024/04/04 03:46:55;;;;;;;4.00;2.67;;;11.20;99.90;;;-141.84;80.16;38999.59;5115697;27;20267;-65
2024/04/04 03:49:22;;;;;;;3.47;2.50;;;11.20;99.90;;;-141.84;80.73;44180.38;5116034;27;20229;-60
2024/04/04 03:51:50;;;;;;;2.60;2.40;;;11.20;99.90;;;-141.84;82.07;53352.78;5114453;27;20222;-60
2024/04/04 03:54:17;;;;;;;3.10;2.80;;;11.10;99.90;;;-141.84;83.00;59917.56;5111664;28;20202;-60
2024/04/04 03:56:44;;;;;;;3.53;3.23;;;10.90;99.90;;;-141.84;84.74;68072.97;5112153;27;20748;-59
2024/04/04 03:59:16;;;;;;;4.30;3.70;;;10.80;99.90;;;-141.84;87.01;78620.75;5114536;28;20223;-60
2024/04/04 04:01:42;;;;;;;3.50;3.20;;;10.70;99.90;;;-141.84;88.68;84698.34;5115795;27;20267;-60
2024/04/04 04:04:10;;;;;;;3.20;2.90;;;10.60;99.90;;;-141.84;89.80;88402.22;5115070;27;20237;-65
2024/04/04 04:06:37;;;;;;;3.63;2.80;;;10.50;99.90;;;-141.84;88.68;85756.25;5114556;27;20464;-66
2024/04/04 04:09:04;;;;;;;2.90;2.70;;;10.50;99.90;;;-141.84;89.00;85491.75;5112477;28;20195;-59
2024/04/04 04:11:35;;;;;;;2.63;2.43;;;10.40;99.90;;;-141.84;86.99;78884.81;5111679;27;20223;-59
2024/04/04 04:14:01;;;;;;;2.90;2.70;;;10.40;99.90;;;-141.84;86.46;75717.34;5117313;27;20214;-59
2024/04/04 04:16:31;;;;;;;5.57;3.40;;;10.40;99.90;;;-141.84;80.86;46013.16;5111627;28;20264;-60
2024/04/04 04:18:57;;;;;;;3.27;2.50;;;10.40;99.90;;;-141.84;79.77;33788.94;5114166;27;20233;-59
2024/04/04 04:21:25;;;;;;;4.77;2.27;;;10.50;99.90;;;-141.84;80.50;38003.06;5112900;27;20211;-59
2024/04/04 04:23:54;;;;;;;2.97;2.23;;;10.30;99.90;;;-141.84;77.72;24788.16;5109858;27;20214;-67
2024/04/04 04:26:21;;;;;;;2.47;1.80;;;10.30;99.90;;;-141.84;76.78;20891.13;5115590;27;20211;-66
2024/04/04 04:28:48;;;;;;;4.00;1.60;;;10.30;99.90;;;-141.84;73.37;19216.38;5115840;27;20223;-60
2024/04/04 04:31:27;;;;;;;2.63;2.00;;;10.20;99.90;;;-141.84;72.22;19084.28;5110909;28;20215;-64
2024/04/04 04:33:57;;;;;;;5.23;2.67;;;10.20;99.90;;;-141.84;73.89;19326.09;5110352;28;20211;-60
2024/04/04 04:36:26;;;;;;;4.50;2.50;;;10.10;99.90;;;-141.84;74.33;19496.81;5110531;28;20245;-65
2024/04/04 04:38:53;;;;;;;5.73;3.00;;;10.00;99.90;;;-141.84;74.70;19614.66;5113135;27;20744;-65
2024/04/04 04:41:21;;;;;;;3.40;1.73;;;10.00;99.90;;;-141.84;72.92;19220.44;5113245;27;20215;-66
2024/04/04 04:43:48;;;;;;;3.60;1.87;;;10.00;99.90;;;-141.84;72.06;19098.50;5114744;28;20291;-65
2024/04/04 04:46:16;;;;;;;2.87;1.40;;;10.00;99.90;;;-141.84;72.22;19129.00;5113314;27;20594;-67
2024/04/04 04:48:42;;;;;;;2.87;1.83;;;9.90;99.90;;;-141.84;72.36;19110.72;5113763;28;20223;-65
2024/04/04 04:51:13;;;;;;;2.73;1.57;;;9.90;99.90;;;-141.84;70.80;19009.09;5111491;28;20192;-59
2024/04/04 04:53:42;;;;;;;3.93;1.50;;;9.90;99.90;;;-141.84;69.98;18984.72;5110489;28;20214;-60
2024/04/04 04:56:08;;;;;;;4.03;2.33;;;9.90;99.90;;;-141.84;70.29;18972.53;5112559;28;20260;-66
2024/04/04 04:58:36;;;;;;;5.00;2.13;;;9.90;99.90;;;-141.84;70.94;19051.78;5117052;28;20226;-59
2024/04/04 05:01:03;;;;;;;3.57;2.73;;;9.90;99.90;;;-141.84;70.58;18998.94;5107568;28;20230;-60
2024/04/04 05:03:32;;;;;;;2.57;1.70;;;9.80;99.90;;;-141.84;71.83;19051.78;5114739;28;20225;-60
2024/04/04 05:05:58;;;;;;;4.23;1.60;;;9.80;99.90;;;-141.84;71.34;19019.28;5111994;28;20207;-59
2024/04/04 05:08:27;;;;;;;4.40;2.10;;;9.80;99.90;;;-141.84;71.29;19037.56;5112001;28;20210;-60
2024/04/04 05:10:55;;;;;;;2.37;1.80;;;9.80;99.90;;;-141.84;69.60;18972.53;5118367;28;20214;-60
2024/04/04 05:13:22;;;;;;;3.97;1.67;;;9.90;99.90;;;-141.84;70.07;19000.97;5107393;28;20208;-59
2024/04/04 05:15:55;;;;;;;3.80;1.47;;;9.90;99.90;;;-141.84;68.69;18921.75;5106212;28;20215;-60
2024/04/04 05:18:23;;;;;;;3.17;2.20;;;10.00;99.90;;;-141.84;68.97;18964.41;5112103;28;20567;-60
2024/04/04 05:20:57;;;;;;;3.20;1.57;;;10.10;99.90;;;-141.84;67.08;18942.06;5112397;28;20214;-59
2024/04/04 05:23:26;;;;;;;2.93;1.80;;;10.10;99.90;;;-141.84;67.38;18960.34;5109418;28;20210;-59
2024/04/04 05:25:55;;;;;;;2.67;1.60;;;10.20;99.90;;;-141.84;66.69;18935.97;5117703;28;20216;-65
2024/04/04 05:28:26;;;;;;;2.93;1.60;;;10.20;99.90;;;-141.84;65.05;18905.47;5115064;28;20214;-66
2024/04/04 05:30:55;;;;;;;4.97;2.37;;;10.30;99.90;;;-141.84;63.57;18970.50;5115164;28;20241;-65
2024/04/04 05:33:22;;;;;;;2.67;1.93;;;10.40;99.90;;;-141.84;63.51;18948.16;5114438;28;20651;-66
2024/04/04 05:35:49;;;;;;;3.50;1.33;;;10.50;99.90;;;-141.84;63.20;18942.06;5117109;28;20697;-66
2024/04/04 05:38:17;;;;;;;2.87;1.40;;;10.60;99.90;;;-141.84;61.94;19005.03;5115907;28;20284;-66
2024/04/04 05:40:44;;;;;;;2.83;1.20;;;10.70;99.90;;;-141.84;61.60;18994.88;5112840;28;20215;-61
2024/04/04 05:43:16;;;;;;;2.77;1.30;;;10.90;99.90;;;-141.84;60.61;18990.81;5116479;28;20223;-60
2024/04/04 05:45:44;;;;;;;2.20;1.60;;;11.10;99.90;;;-141.84;60.41;19015.19;5106444;28;20235;-59
2024/04/04 05:48:15;;;;;;;3.77;1.30;;;11.20;99.90;;;-141.84;60.25;19015.19;5116410;28;20207;-65
2024/04/04 05:50:41;;;;;;;4.20;1.30;;;11.30;99.90;;;-141.84;59.25;19043.66;5110458;28;20221;-65
2024/04/04 05:53:09;;;;;;;1.57;0.93;;;11.40;99.90;;;-141.84;59.51;19029.44;5116752;28;20293;-66
2024/04/04 05:55:43;;;;;;;1.87;1.20;;;11.40;99.90;;;-141.84;59.41;19045.69;5116639;27;20229;-60
2024/04/04 05:58:12;;;;;;;2.10;1.00;;;11.50;99.90;;;-141.84;59.41;19033.50;5116080;27;20782;-59
2024/04/04 06:00:38;;;;;;;1.40;0.97;;;11.50;99.90;;;-141.84;58.56;19037.56;5115147;28;20196;-59
2024/04/04 06:03:06;;;;;;;8.50;1.50;;;11.60;99.90;;;-141.84;58.96;19049.75;5114950;28;20215;-60
2024/04/04 06:05:34;;;;;;;2.83;1.27;;;11.50;99.90;;;-141.84;59.14;19027.41;5116047;27;20249;-59
2024/04/04 06:08:02;;;;;;;2.07;0.97;;;11.40;99.90;;;-141.84;59.64;19033.50;5119604;27;20218;-59
2024/04/04 06:10:29;;;;;;;2.20;1.13;;;11.30;99.90;;;-141.84;59.29;19043.66;5118337;27;20218;-60
2024/04/04 06:12:57;;;;;;;1.87;1.10;;;11.20;99.90;;;-141.84;60.10;19057.88;5117578;27;20269;-60
2024/04/04 06:15:24;;;;;;;1.47;1.07;;;11.20;99.90;;;-141.84;59.87;19041.63;5120472;27;20315;-61
2024/04/04 06:17:56;;;;;;;1.67;1.20;;;11.20;99.90;;;-141.84;60.61;19035.53;5130882;27;20206;-59
2024/04/04 06:20:23;;;;;;;2.17;1.10;;;11.10;99.90;;;-141.84;60.63;19053.81;5115957;27;20229;-59
2024/04/04 06:22:56;;;;;;;3.83;1.20;;;11.20;99.90;;;-141.84;59.44;19053.81;5110555;27;20214;-61
2024/04/04 06:25:22;;;;;;;3.30;1.70;;;11.40;99.90;;;-141.84;58.94;19080.22;5063972;27;20218;-59
2024/04/04 06:27:51;;;;;;;2.13;1.10;;;11.50;99.90;;;-141.84;58.99;19080.22;5108236;27;20218;-60
2024/04/04 06:30:19;;;;;;;3.90;1.17;;;11.60;99.90;;;-141.84;57.95;19098.50;5100792;28;20841;-61
2024/04/04 06:32:46;;;;;;;2.57;1.20;;;11.80;99.90;;;-141.84;57.15;19090.38;5111919;27;20256;-59
2024/04/04 06:35:13;;;;;;;4.30;1.10;;;11.90;99.90;;;-141.84;57.03;19118.84;5111004;28;20207;-59
2024/04/04 06:37:41;;;;;;;2.10;1.00;;;11.90;99.90;;;-141.84;56.57;19139.16;5114566;27;20210;-59
2024/04/04 06:40:08;;;;;;;3.00;1.20;;;12.10;99.90;;;-141.84;56.32;19155.41;5114885;27;20218;-61
2024/04/04 06:42:35;;;;;;;3.00;1.00;;;12.20;99.90;;;-141.84;55.26;19133.06;5116449;27;20202;-60
2024/04/04 06:45:02;;;;;;;2.67;1.25;;;12.30;99.90;;;-141.84;54.97;19208.25;5111757;28;20227;-60
2024/04/04 06:47:33;;;;;;;3.67;1.07;;;12.50;99.90;;;-141.84;54.91;19222.47;5113063;27;20249;-60
2024/04/04 06:50:00;;;;;;;3.87;1.27;;;12.60;99.90;;;-141.84;52.56;19228.56;5116872;27;20219;-59
2024/04/04 06:52:27;;;;;;;1.57;1.00;;;12.80;99.90;;;-141.84;52.77;19212.31;5108929;28;20219;-59
2024/04/04 06:54:54;;;;;;;3.10;0.97;;;12.90;99.90;;;-141.84;53.53;19210.28;5112966;27;20264;-61
2024/04/04 06:57:20;;;;;;;1.92;0.98;;;13.00;99.90;;;-141.84;52.82;19250.91;5104518;28;20200;-61
2024/04/04 06:59:48;;;;;;;2.20;1.00;;;13.00;99.90;;;-141.84;52.01;19271.25;5114834;27;20226;-61
2024/04/04 07:02:14;;;;;;;1.52;0.93;;;13.10;99.90;;;-141.84;52.15;19291.56;5114280;27;20251;-60
2024/04/04 07:04:43;;;;;;;1.80;1.10;;;13.20;99.90;;;-141.84;51.57;19332.19;5114634;27;20572;-61
2024/04/04 07:07:09;;;;;;;1.92;0.90;;;13.50;99.90;;;-141.84;51.65;19348.47;5113488;27;20219;-60
2024/04/04 07:09:37;;;;;;;2.97;0.93;;;13.60;99.90;;;-141.84;50.92;19342.34;5061565;27;20293;-61
2024/04/04 07:12:05;;;;;;;3.33;1.15;;;13.70;99.90;;;-141.84;50.89;19358.63;5122193;27;20207;-60
2024/04/04 07:14:36;;;;;;;3.78;1.00;;;13.80;99.90;;;-141.84;50.29;19350.50;5118193;27;20732;-61
2024/04/04 07:17:03;;;;;;;3.03;1.00;;;13.80;99.90;;;-141.84;49.68;19395.19;5119304;27;20230;-61
2024/04/04 07:19:37;;;;;;;3.55;1.50;;;13.90;99.90;;;-141.84;50.05;19383.00;5114131;28;20222;-60
2024/04/04 07:22:05;;;;;;;1.48;0.68;;;13.90;99.90;;;-141.84;50.33;19344.41;5108599;28;20710;-61
2024/04/04 07:24:36;;;;;;;2.78;0.98;;;13.80;99.90;;;-141.84;51.07;19360.66;5110180;27;20248;-61
2024/04/04 07:27:05;;;;;;;2.53;1.27;;;13.60;99.90;;;-141.84;51.40;19356.59;5115973;28;20233;-67
2024/04/04 07:29:36;;;;;;;1.15;0.70;;;13.70;99.90;;;-141.84;50.81;19354.56;5115676;27;20273;-67
2024/04/04 07:32:03;;;;;;;5.20;1.30;;;13.70;99.90;;;-141.84;50.18;19350.50;5118061;27;20219;-68
2024/04/04 07:34:31;;;;;;;4.00;1.02;;;13.70;99.90;;;-141.84;50.97;19344.41;5118110;27;20214;-68
2024/04/04 07:37:00;;;;;;;2.15;1.05;;;13.60;99.90;;;-141.84;50.82;19336.25;5100921;27;20214;-67
2024/04/04 07:39:33;;;;;;;1.98;0.70;;;13.60;99.90;;;-141.84;51.74;19344.41;5115168;28;20199;-66
2024/04/04 07:42:01;;;;;;;4.68;1.20;;;13.40;99.90;;;-141.84;51.92;19317.97;5114925;28;20214;-67
2024/04/04 07:44:28;;;;;;;1.83;1.00;;;13.40;99.90;;;-141.84;51.77;19322.03;5116949;27;20219;-61
2024/04/04 07:46:55;;;;;;;1.33;0.90;;;13.40;99.90;;;-141.84;51.57;19334.22;5118451;27;20240;-61
2024/04/04 07:49:23;;;;;;;1.52;0.80;;;13.50;99.90;;;-141.84;51.93;19352.53;5118140;27;20215;-67
2024/04/04 07:51:55;;;;;;;3.60;1.40;;;13.60;99.90;;;-141.84;51.54;19346.44;5114993;27;20264;-68
2024/04/04 07:54:22;;;;;;;3.83;1.23;;;13.60;99.90;;;-141.84;51.35;19358.63;5112387;28;20190;-60
2024/04/04 07:56:57;;;;;;;1.65;1.00;;;13.70;99.90;;;-141.84;51.87;19305.78;5115586;27;20215;-60
2024/04/04 07:59:24;;;;;;;2.40;1.10;;;13.60;99.90;;;-141.84;50.96;19374.88;5117720;27;20210;-61
2024/04/04 08:01:55;;;;;;;2.60;1.70;;;13.70;99.90;;;-141.84;50.14;19397.22;5117624;27;20223;-60
2024/04/04 08:04:22;;;;;;;2.33;1.10;;;13.90;99.90;;;-141.84;50.53;19415.50;5116311;27;20237;-61
2024/04/04 08:06:48;;;;;;;4.32;1.20;;;14.10;99.90;;;-141.84;50.09;19419.59;5114537;28;20230;-60
2024/04/04 08:09:17;;;;;;;1.50;1.23;;;14.20;99.90;;;-141.84;49.42;19452.09;5115880;28;20741;-61
2024/04/04 08:11:43;;;;;;;1.77;1.13;;;14.40;99.90;;;-141.84;48.71;19539.47;5115597;27;20219;-61
2024/04/04 08:14:16;;;;;;;1.95;1.00;;;14.60;99.90;;;-141.84;49.00;19517.13;5117559;27;20223;-60
2024/04/04 08:16:43;;;;;;;3.33;1.10;;;14.70;99.90;;;-141.84;48.68;19511.03;5083066;27;20218;-61
2024/04/04 08:19:16;;;;;;;2.28;1.10;;;14.70;99.90;;;-141.84;49.26;19460.22;5115659;27;20268;-60
2024/04/04 08:21:43;;;;;;;3.45;1.40;;;14.70;99.90;;;-141.84;50.26;19452.09;5107827;28;20773;-60
2024/04/04 08:24:11;;;;;;;1.83;1.10;;;14.50;99.90;;;-141.84;50.40;19425.69;5115893;27;20219;-61
2024/04/04 08:26:41;;;;;;;3.08;1.10;;;14.40;99.90;;;-141.84;51.75;19374.88;5114157;28;20623;-60
2024/04/04 08:29:09;;;;;;;2.08;1.17;;;14.20;99.90;;;-141.84;52.83;19354.56;5113926;28;20219;-60
2024/04/04 08:31:42;;;;;;;1.80;1.10;;;14.00;99.90;;;-141.84;53.99;19320.00;5098339;27;20272;-60
2024/04/04 08:34:09;;;;;;;2.80;1.65;;;13.80;99.90;;;-141.84;56.11;19317.97;5117345;27;20210;-60
2024/04/04 08:36:40;;;;;;;3.40;1.23;;;13.60;99.90;;;-141.84;57.43;19265.13;5116631;27;20194;-60
2024/04/04 08:39:08;;;;;;;2.22;1.10;;;13.50;99.90;;;-141.84;58.16;19277.34;5117806;27;20207;-60
2024/04/04 08:41:40;;;;;;;7.68;1.40;;;13.40;99.90;;;-141.84;58.21;19297.66;5114463;28;20822;-61
2024/04/04 08:44:08;;;;;;;3.53;1.02;;;13.50;99.90;;;-141.84;57.74;19271.25;5113691;28;20223;-60
2024/04/04 08:46:37;;;;;;;2.72;1.58;;;13.60;99.90;;;-141.84;59.00;19311.88;5109058;27;20218;-61
2024/04/04 08:49:06;;;;;;;1.50;1.40;;;13.60;99.90;;;-141.84;60.80;19232.63;5117025;28;20215;-61
2024/04/04 08:51:36;;;;;;;3.50;1.60;;;13.50;99.90;;;-141.84;61.52;19317.97;5117327;28;20267;-60
2024/04/04 08:54:04;;;;;;;2.95;1.52;;;13.60;99.90;;;-141.84;58.70;19322.03;5117659;28;20202;-59
2024/04/04 08:56:36;;;;;;;2.60;1.70;;;13.80;99.90;;;-141.84;56.72;19378.94;5117397;28;20230;-60
2024/04/04 08:59:03;;;;;;;2.65;1.50;;;14.20;99.90;;;-141.84;53.91;19456.16;5115579;28;20218;-60
2024/04/04 09:01:35;;;;;;;1.90;1.65;;;14.60;99.90;;;-141.84;53.19;19488.69;5112826;28;20227;-61
2024/04/04 09:04:02;;;;;;;1.77;1.30;;;14.80;99.90;;;-141.84;53.28;19515.09;5117262;28;20226;-60
2024/04/04 09:06:37;;;;;;;2.15;1.52;;;15.10;99.90;;;-141.84;51.80;19529.31;5116617;28;20251;-60
2024/04/04 09:09:04;;;;;;;3.63;2.00;;;15.40;99.90;;;-141.84;51.41;19513.06;5116826;28;20267;-60
2024/04/04 09:11:35;;;;;;;2.40;1.48;;;15.50;99.90;;;-141.84;51.77;19541.50;5116570;28;20222;-62
2024/04/04 09:14:09;;;;;;;2.88;1.60;;;15.60;99.90;;;-141.84;50.85;19521.19;5113305;28;20219;-60
2024/04/04 09:16:41;;;;;;;2.53;1.88;;;15.70;99.90;;;-141.84;51.12;19586.22;5067171;28;20324;-60
2024/04/04 09:19:16;;;;;;;2.47;1.42;;;15.90;99.90;;;-141.84;50.51;19635.00;5123603;28;20238;-63
2024/04/04 09:21:45;;;;;;;2.20;1.67;;;16.00;99.90;;;-141.84;49.29;19649.22;5111656;28;20230;-67
2024/04/04 09:24:18;;;;;;;4.68;2.00;;;16.30;99.90;;;-141.84;49.09;19647.19;5117329;28;20203;-67
2024/04/04 09:26:46;;;;;;;4.00;1.67;;;16.30;99.90;;;-141.84;50.00;19630.94;5113307;28;20272;-62
2024/04/04 09:29:18;;;;;;;2.20;1.60;;;16.30;99.90;;;-141.84;50.54;19600.44;5113989;28;20223;-66
2024/04/04 09:31:47;;;;;;;3.35;1.50;;;16.20;99.90;;;-141.84;50.50;19590.28;5119734;27;20218;-68
2024/04/04 09:34:18;;;;;;;2.83;1.80;;;16.20;99.90;;;-141.84;51.20;19606.53;5117526;28;20222;-67
2024/04/04 09:36:47;;;;;;;1.60;1.50;;;16.10;99.90;;;-141.84;51.23;19580.13;5117224;27;20648;-68
2024/04/04 09:39:19;;;;;;;4.18;1.80;;;16.00;99.90;;;-141.84;51.17;19608.56;5121190;27;20210;-67
2024/04/04 09:41:48;;;;;;;2.05;1.63;;;16.00;99.90;;;-141.84;51.35;19576.06;5098639;28;20284;-67
2024/04/04 09:44:16;;;;;;;2.13;1.60;;;16.00;99.90;;;-141.84;51.74;19576.06;5118216;27;20224;-68
2024/04/04 09:46:44;;;;;;;4.55;1.45;;;15.90;99.90;;;-141.84;51.23;19618.75;5120217;27;20879;-68
2024/04/04 09:49:18;;;;;;;3.47;1.63;;;16.10;99.90;;;-141.84;51.47;19576.06;5120237;27;20227;-66
2024/04/04 09:51:55;;;;;;;1.70;1.35;;;16.00;99.90;;;-141.84;52.42;19543.53;5069370;27;20279;-67
2024/04/04 09:54:22;;;;;;;2.80;1.40;;;15.90;99.90;;;-141.84;52.96;19531.34;5092030;28;20275;-68
2024/04/04 09:56:56;;;;;;;1.60;1.10;;;15.90;99.90;;;-141.84;52.65;19547.59;5120247;27;20758;-67
2024/04/04 09:59:26;;;;;;;1.77;1.20;;;15.90;99.90;;;-141.84;53.30;19537.44;5120187;27;20210;-66
2024/04/04 10:02:01;;;;;;;1.52;1.10;;;15.80;99.90;;;-141.84;54.63;19498.84;5120266;27;20271;-67
2024/04/04 10:04:39;;;;;;;1.98;1.25;;;15.70;99.90;;;-141.84;55.28;19480.53;5116477;28;20221;-68
2024/04/04 10:07:07;;;;;;;1.10;0.90;;;15.70;99.90;;;-141.84;54.79;19498.84;5119576;27;20272;-67
2024/04/04 10:09:39;;;;;;;2.90;0.90;;;15.60;99.90;;;-141.84;55.51;19476.47;5119846;27;20225;-60